KRWV

Caldwell Municipal Airport

Caldwell, Texas, USA
METAR KRWV 191455Z AUTO 00000KT 10SM OVC023 04/M04 A3029 RMK AO2 T00401042
Observed Flight Rules
Jan-19 @ 14:55 UTC (35 minutes ago) Marginal Visual Flight Rules
Wind Visibility Clouds
Calm 10 miles
  • Overcast at 2,300' AGL
Temperatures Readings
Current 4°C / 39°F
Dewpoint -4°C / 25°F
Humidity 56%
Altimeter 30.29" Hg
Pressure 1026 hPa
Elevation 119
METAR KRWV 191455Z AUTO 00000KT 10SM OVC023 04/M04 A3029 RMK AO2 T00401042
Observed Flight Rules
Jan-19 @ 14:55 UTC
(35 minutes ago)
MVFR
Wind Visibility
Calm 10 miles
Clouds
  • Overcast at 2,300' AGL
Temperature Dewpoint
4°C / 39°F -4°C / 25°F
Humidity Altimeter Pressure
56% 30.29" Hg 1026 hPa